LiveATC.Net - Listen to live air traffic control over the Internet! Contact for advertising information

ICAO: KGNV  IATA: GNV   Airport: Gainesville Regional Airport
City: Gainesville   State/Province: Florida
Country: United States   Continent: North America
KGNV METAR Weather: KGNV 071653Z 03007KT 10SM BKN028 27/18 A3003 RMK AO2 SLP166 T02670178
KGNV Flight Activity (FlightAware)
KGNV Airport Info   (AirNav) (iFlightPlanner)
KGNV VFR Sectional Chart   (iFlightPlanner) 
KGNV IFR Low Chart   (iFlightPlanner) 
KGNV Ground/Tower
Feed Status: DOWN
Last heard on: 2015-09-22 00:45:02 (15 days 16 hours 44 minutes ago)
KGNV Ground/Tower Audio Archives
Gainesville Ground121.700
Gainesville Tower119.550

Feed provided by: University Air Center


Unauthorized use prohibited. See Terms of Service

Find LiveATC Audio Streams

Airport/ARTCC Code

(e.g., 124.400, 128.75)
Site-wide search

Browse LiveATC Feeds
LiveATC Coverage Map
Top 50 LiveATC Feeds
Bad Weather Areas

Offer a LiveATC Feed
Press Inquiries

LiveATC on iPhone
LiveATC on Android

Windows Phone
Windows 8/10

LiveATC Mobile
(Mobile browser)

ATC Audio Archives
Interesting Recordings

LiveATC Forums

Home Page
Make a Donation
LiveATC Bookstore

Terms of Use
Privacy Policy

ATC/Radar Sites
U.S. ARTCC Freqs
Canadian Air Freqs


FAA Airport Status
Nat'l Airspace Status
Arrival Demand Charts

Server Software By:

Please make a donation to help us keep growing!